createdAt,value
2023-03-02T00:02:24.449Z,86.75
2023-03-02T00:04:54.921Z,86.64
2023-03-02T00:07:32.626Z,86.84
2023-03-02T00:09:59.772Z,86.97
2023-03-02T00:12:32.629Z,86.64
2023-03-02T00:14:59.902Z,86.58
2023-03-02T00:17:29.703Z,86.32
2023-03-02T00:20:07.142Z,86.22
2023-03-02T00:22:34.089Z,86.37
2023-03-02T00:25:00.985Z,85.99
2023-03-02T00:27:30.509Z,86.17
2023-03-02T00:29:57.684Z,86.51
2023-03-02T00:32:25.159Z,86.45
2023-03-02T00:34:52.326Z,86.81
2023-03-02T00:37:19.457Z,86.87
2023-03-02T00:39:46.428Z,86.75
2023-03-02T00:42:13.677Z,87.12
2023-03-02T00:44:40.615Z,86.98
2023-03-02T00:47:07.600Z,87.21
2023-03-02T00:49:35.012Z,88.01
2023-03-02T00:52:03.064Z,87.83
2023-03-02T00:54:30.020Z,87.86
2023-03-02T00:56:57.918Z,87.98
2023-03-02T00:59:28.111Z,88.06
2023-03-02T01:02:08.053Z,88.46
2023-03-02T01:04:41.243Z,88.54
2023-03-02T01:07:11.691Z,88.64
2023-03-02T01:09:40.250Z,88.42
2023-03-02T01:12:10.386Z,88.29
2023-03-02T01:14:39.251Z,88.17
2023-03-02T01:17:07.133Z,88.00
2023-03-02T01:19:35.633Z,88.00
2023-03-02T01:22:02.651Z,88.45
2023-03-02T01:24:29.943Z,88.84
2023-03-02T01:26:56.998Z,89.36
2023-03-02T01:29:24.208Z,89.41
2023-03-02T01:31:51.256Z,89.43
2023-03-02T01:34:18.520Z,89.72
2023-03-02T01:36:46.244Z,90.09
2023-03-02T01:39:16.850Z,90.07
2023-03-02T01:41:45.678Z,90.03
2023-03-02T01:44:40.923Z,90.02
2023-03-02T01:47:20.643Z,89.87
2023-03-02T01:50:26.320Z,89.66
2023-03-02T01:52:57.698Z,89.84
2023-03-02T01:55:29.131Z,89.98
2023-03-02T01:57:57.499Z,89.31
2023-03-02T02:00:33.266Z,89.71
2023-03-02T02:03:10.938Z,89.60
2023-03-02T02:05:41.093Z,89.30
2023-03-02T02:08:08.238Z,89.27
2023-03-02T02:10:35.693Z,89.40
2023-03-02T02:13:03.030Z,89.82
2023-03-02T02:15:30.180Z,89.51
2023-03-02T02:17:57.121Z,90.02
2023-03-02T02:20:27.205Z,89.94
2023-03-02T02:23:12.735Z,89.93
2023-03-02T02:26:01.975Z,89.67
2023-03-02T02:28:34.868Z,89.58
2023-03-02T02:31:13.740Z,89.76
2023-03-02T02:33:43.817Z,89.80
2023-03-02T02:36:17.488Z,89.80
2023-03-02T02:38:48.562Z,90.28
2023-03-02T02:41:26.315Z,89.99
2023-03-02T02:43:55.030Z,90.12
2023-03-02T02:46:22.904Z,89.87
2023-03-02T02:48:50.125Z,90.37
2023-03-02T02:51:25.614Z,90.58
2023-03-02T02:54:01.694Z,90.84
2023-03-02T02:56:39.071Z,91.03
2023-03-02T02:59:22.923Z,91.15
2023-03-02T03:01:51.365Z,90.90
2023-03-02T03:04:23.392Z,90.70
2023-03-02T03:07:03.002Z,90.85
2023-03-02T03:09:31.359Z,90.95
2023-03-02T03:12:16.096Z,90.70
2023-03-02T03:14:43.592Z,90.59
2023-03-02T03:17:12.851Z,90.43
2023-03-02T03:19:47.741Z,90.40
2023-03-02T03:22:17.252Z,90.41
2023-03-02T03:24:46.864Z,90.55
2023-03-02T03:27:16.536Z,90.41
2023-03-02T03:29:48.410Z,90.66
2023-03-02T03:32:18.298Z,90.79
2023-03-02T03:34:46.357Z,90.46
2023-03-02T03:37:22.469Z,90.11
2023-03-02T03:39:49.991Z,90.15
2023-03-02T03:42:18.209Z,89.98
2023-03-02T03:44:46.163Z,89.52
2023-03-02T03:47:13.574Z,89.44
2023-03-02T03:49:40.555Z,89.08
2023-03-02T03:52:08.257Z,89.32
2023-03-02T03:54:35.691Z,89.20
2023-03-02T03:57:02.889Z,89.16
2023-03-02T03:59:29.923Z,89.35
2023-03-02T04:02:01.926Z,89.59
2023-03-02T04:04:35.694Z,89.73
2023-03-02T04:07:10.171Z,89.55
2023-03-02T04:09:39.324Z,89.61
2023-03-02T04:12:09.866Z,89.82
2023-03-02T04:14:38.845Z,90.25
2023-03-02T04:17:07.168Z,90.24
2023-03-02T04:19:37.547Z,90.71
2023-03-02T04:22:05.087Z,90.76
2023-03-02T04:24:34.021Z,90.88
2023-03-02T04:27:03.410Z,91.05
2023-03-02T04:29:32.432Z,91.06
2023-03-02T04:32:01.455Z,91.26
2023-03-02T04:34:34.607Z,91.51
2023-03-02T04:37:03.064Z,91.83
2023-03-02T04:39:34.235Z,92.24
2023-03-02T04:42:02.475Z,92.09
2023-03-02T04:44:29.581Z,92.45
2023-03-02T04:46:56.504Z,92.38
2023-03-02T04:49:23.722Z,92.20
2023-03-02T04:51:51.881Z,92.41
2023-03-02T04:54:25.487Z,92.49
2023-03-02T04:56:54.358Z,92.69
2023-03-02T04:59:25.912Z,92.70
2023-03-02T05:01:55.248Z,92.54
2023-03-02T05:04:22.655Z,92.20
2023-03-02T05:06:50.027Z,92.19
2023-03-02T05:09:17.100Z,92.05
2023-03-02T05:11:44.096Z,91.90
2023-03-02T05:14:13.050Z,92.09
2023-03-02T05:16:41.582Z,92.34
2023-03-02T05:19:11.631Z,92.37
2023-03-02T05:21:39.405Z,91.84
2023-03-02T05:24:06.717Z,92.12
2023-03-02T05:26:34.285Z,92.21
2023-03-02T05:29:01.435Z,91.89
2023-03-02T05:31:35.116Z,92.06
2023-03-02T05:34:04.788Z,92.04
2023-03-02T05:36:32.515Z,91.86
2023-03-02T05:38:59.839Z,91.94
2023-03-02T05:41:27.182Z,91.58
2023-03-02T05:43:54.185Z,90.72
2023-03-02T05:46:22.138Z,90.59
2023-03-02T05:48:49.409Z,90.44
2023-03-02T05:51:16.487Z,90.29
2023-03-02T05:53:43.548Z,90.04
2023-03-02T05:56:10.619Z,90.03
2023-03-02T05:58:37.572Z,89.64
2023-03-02T06:01:09.963Z,89.16
2023-03-02T06:03:37.034Z,89.19
2023-03-02T06:06:04.179Z,89.12
2023-03-02T06:08:31.733Z,88.57
2023-03-02T06:10:59.109Z,88.09
2023-03-02T06:13:26.208Z,87.63
2023-03-02T06:15:53.163Z,87.44
2023-03-02T06:18:20.002Z,87.38
2023-03-02T06:20:47.109Z,86.77
2023-03-02T06:23:14.116Z,86.23
2023-03-02T06:25:43.770Z,86.43
2023-03-02T06:28:10.783Z,86.38
2023-03-02T06:30:37.656Z,86.30
2023-03-02T06:33:04.726Z,86.11
2023-03-02T06:35:32.094Z,86.34
2023-03-02T06:37:59.038Z,85.98
2023-03-02T06:40:26.061Z,85.91
2023-03-02T06:42:53.071Z,85.79
2023-03-02T06:45:20.034Z,85.69
2023-03-02T06:47:46.936Z,85.58
2023-03-02T06:50:13.971Z,85.39
2023-03-02T06:52:40.962Z,84.97
2023-03-02T06:55:08.604Z,84.32
2023-03-02T06:57:35.488Z,83.58
2023-03-02T07:00:09.751Z,83.60
2023-03-02T07:02:37.502Z,83.53
2023-03-02T07:05:05.457Z,84.12
2023-03-02T07:07:32.449Z,83.97
2023-03-02T07:09:59.305Z,84.25
2023-03-02T07:12:26.270Z,83.84
2023-03-02T07:14:53.192Z,83.84
2023-03-02T07:17:20.145Z,83.52
2023-03-02T07:19:47.238Z,83.11
2023-03-02T07:22:14.446Z,83.21
2023-03-02T07:24:42.590Z,83.28
2023-03-02T07:27:10.476Z,83.10
2023-03-02T07:29:37.433Z,83.34
2023-03-02T07:32:06.945Z,82.54
2023-03-02T07:34:33.863Z,81.99
2023-03-02T07:37:01.096Z,82.14
2023-03-02T07:39:28.209Z,82.13
2023-03-02T07:41:59.402Z,82.05
2023-03-02T07:44:28.652Z,81.05
2023-03-02T07:46:55.715Z,80.79
2023-03-02T07:49:22.829Z,80.66
2023-03-02T07:51:50.037Z,80.26
2023-03-02T07:54:17.470Z,80.27
2023-03-02T07:56:44.341Z,80.35
2023-03-02T07:59:12.545Z,80.50
2023-03-02T08:01:39.564Z,79.66
2023-03-02T08:04:06.692Z,79.83
2023-03-02T08:06:33.867Z,79.91
2023-03-02T08:09:03.614Z,80.36
2023-03-02T08:11:30.673Z,79.05
2023-03-02T08:14:01.869Z,79.78
2023-03-02T08:16:29.399Z,79.62
2023-03-02T08:18:59.514Z,79.60
2023-03-02T08:21:27.540Z,80.04
2023-03-02T08:23:54.720Z,80.02
2023-03-02T08:26:21.824Z,79.58
2023-03-02T08:28:49.276Z,79.58
2023-03-02T08:31:16.370Z,79.70
2023-03-02T08:33:43.666Z,80.15
2023-03-02T08:36:16.986Z,80.33
2023-03-02T08:38:45.358Z,78.13
2023-03-02T08:41:18.693Z,78.33
2023-03-02T08:43:45.809Z,77.95
2023-03-02T08:46:14.505Z,77.81
2023-03-02T08:48:41.564Z,77.79
2023-03-02T08:51:13.303Z,78.21
2023-03-02T08:53:42.912Z,77.42
2023-03-02T08:56:24.400Z,77.06
2023-03-02T08:58:53.153Z,76.42
2023-03-02T09:01:25.682Z,75.89
2023-03-02T09:03:52.820Z,75.88
2023-03-02T09:06:19.865Z,76.23
2023-03-02T09:08:48.187Z,76.83
2023-03-02T09:11:15.861Z,77.16
2023-03-02T09:13:43.246Z,75.73
2023-03-02T09:16:10.842Z,75.02
2023-03-02T09:18:37.972Z,74.98
2023-03-02T09:21:05.268Z,75.47
2023-03-02T09:23:33.296Z,74.37
2023-03-02T09:26:00.289Z,73.61
2023-03-02T09:28:27.476Z,74.24
2023-03-02T09:30:58.662Z,73.80
2023-03-02T09:33:26.082Z,73.29
2023-03-02T09:35:53.039Z,74.07
2023-03-02T09:38:20.209Z,74.23
2023-03-02T09:40:52.317Z,73.52
2023-03-02T09:43:22.266Z,72.55
2023-03-02T09:45:57.745Z,72.89
2023-03-02T09:48:36.806Z,73.22
2023-03-02T09:51:06.546Z,73.66
2023-03-02T09:53:36.434Z,74.27
2023-03-02T09:56:03.756Z,74.86
2023-03-02T09:58:42.186Z,74.05
2023-03-02T10:01:18.232Z,73.84
2023-03-02T10:03:52.634Z,73.76
2023-03-02T10:06:19.674Z,73.91
2023-03-02T10:08:46.843Z,72.27
2023-03-02T10:11:38.925Z,72.58
2023-03-02T10:14:26.184Z,72.75
2023-03-02T10:16:59.897Z,73.31
2023-03-02T10:19:41.685Z,72.53
2023-03-02T10:22:33.235Z,73.15
2023-03-02T10:25:22.941Z,73.25
2023-03-02T10:28:19.226Z,73.04
2023-03-02T10:30:51.133Z,73.26
2023-03-02T10:33:21.454Z,73.00
2023-03-02T10:35:50.910Z,72.24
2023-03-02T10:38:25.581Z,72.55
2023-03-02T10:41:00.675Z,72.90
2023-03-02T10:43:32.336Z,72.24
2023-03-02T10:46:10.658Z,72.46
2023-03-02T10:49:23.272Z,72.77
2023-03-02T10:52:01.034Z,73.11
2023-03-02T10:54:30.609Z,73.38
2023-03-02T10:56:59.796Z,72.73
2023-03-02T10:59:29.404Z,71.92
2023-03-02T11:02:12.293Z,72.17
2023-03-02T11:04:39.456Z,71.33
2023-03-02T11:07:19.159Z,70.24
2023-03-02T11:10:07.015Z,69.58
2023-03-02T11:12:37.112Z,68.43
2023-03-02T11:15:32.043Z,68.49
2023-03-02T11:18:08.675Z,67.17
2023-03-02T11:20:41.036Z,68.08
2023-03-02T11:23:16.828Z,68.50
2023-03-02T11:25:59.850Z,69.40
2023-03-02T11:28:40.917Z,68.38
2023-03-02T11:31:17.582Z,69.41
2023-03-02T11:34:07.956Z,68.30
2023-03-02T11:36:52.809Z,69.30
2023-03-02T11:39:26.505Z,69.21
2023-03-02T11:41:54.107Z,68.29
2023-03-02T11:44:22.083Z,65.11
2023-03-02T11:46:59.598Z,65.42
2023-03-02T11:49:38.055Z,66.15
2023-03-02T11:52:06.880Z,64.78
2023-03-02T11:54:52.873Z,65.89
2023-03-02T11:57:27.803Z,66.26
2023-03-02T11:59:56.598Z,67.50
2023-03-02T12:02:23.659Z,67.45
2023-03-02T12:05:02.346Z,67.68
2023-03-02T12:07:31.225Z,67.63
2023-03-02T12:10:09.175Z,67.78
2023-03-02T12:12:46.737Z,68.49
2023-03-02T12:15:36.488Z,69.64
2023-03-02T12:18:15.749Z,70.31
2023-03-02T12:20:43.138Z,70.50
2023-03-02T12:23:22.649Z,69.03
2023-03-02T12:25:51.674Z,69.61
2023-03-02T12:28:32.029Z,69.34
2023-03-02T12:31:11.221Z,68.23
2023-03-02T12:33:49.145Z,68.76
2023-03-02T12:36:29.796Z,67.93
2023-03-02T12:39:33.849Z,66.45
2023-03-02T12:42:38.239Z,65.59
2023-03-02T12:45:20.536Z,66.40
2023-03-02T12:47:51.862Z,65.76
2023-03-02T12:50:27.353Z,65.93
2023-03-02T12:53:00.290Z,64.30
2023-03-02T12:55:27.908Z,64.85
2023-03-02T12:58:02.413Z,65.33
2023-03-02T13:00:32.649Z,66.22
2023-03-02T13:03:02.251Z,66.04
2023-03-02T13:05:34.908Z,66.88
2023-03-02T13:08:05.923Z,64.56
2023-03-02T13:10:42.699Z,65.53
2023-03-02T13:13:17.728Z,65.01
2023-03-02T13:15:58.233Z,65.39
2023-03-02T13:18:31.857Z,65.11
2023-03-02T13:21:04.103Z,64.59
2023-03-02T13:23:32.973Z,64.80
2023-03-02T13:26:05.224Z,66.34
2023-03-02T13:28:34.034Z,66.20
2023-03-02T13:31:14.711Z,66.55
2023-03-02T13:33:46.112Z,67.08
2023-03-02T13:36:42.514Z,68.33
2023-03-02T13:39:20.027Z,68.89
2023-03-02T13:41:56.691Z,68.89
2023-03-02T13:44:29.831Z,68.62
2023-03-02T13:46:57.378Z,68.98
2023-03-02T13:49:30.049Z,68.58
2023-03-02T13:52:03.234Z,68.52
2023-03-02T13:54:33.775Z,68.46
2023-03-02T13:57:03.482Z,69.19
2023-03-02T13:59:35.184Z,68.53
2023-03-02T14:02:02.186Z,68.17
2023-03-02T14:04:29.117Z,67.70
2023-03-02T14:06:56.442Z,67.00
2023-03-02T14:09:23.495Z,65.85
2023-03-02T14:11:53.255Z,66.17
2023-03-02T14:14:24.655Z,66.30
2023-03-02T14:16:52.262Z,66.46
2023-03-02T14:19:20.196Z,66.30
2023-03-02T14:21:48.066Z,66.09
2023-03-02T14:24:15.153Z,67.08
2023-03-02T14:26:44.758Z,67.91
2023-03-02T14:29:26.691Z,67.54
2023-03-02T14:31:55.423Z,68.46
2023-03-02T14:34:23.395Z,68.43
2023-03-02T14:36:54.086Z,68.78
2023-03-02T14:39:41.660Z,69.54
2023-03-02T14:42:14.079Z,69.86
2023-03-02T14:44:42.461Z,69.59
2023-03-02T14:47:10.427Z,70.31
2023-03-02T14:49:38.087Z,70.22
2023-03-02T14:52:37.602Z,69.80
2023-03-02T14:55:33.766Z,69.75
2023-03-02T14:58:10.758Z,70.13
2023-03-02T15:00:37.823Z,70.49
2023-03-02T15:03:04.709Z,70.83
2023-03-02T15:05:32.085Z,70.61
2023-03-02T15:07:59.039Z,70.67
2023-03-02T15:10:26.162Z,71.15
2023-03-02T15:12:53.121Z,71.27
2023-03-02T15:15:20.323Z,71.49
2023-03-02T15:17:47.222Z,71.68
2023-03-02T15:20:16.147Z,71.89
2023-03-02T15:22:43.949Z,71.53
2023-03-02T15:25:11.182Z,71.12
2023-03-02T15:27:39.445Z,70.45
2023-03-02T15:30:07.073Z,70.50
2023-03-02T15:32:36.521Z,71.22
2023-03-02T15:35:04.171Z,71.32
2023-03-02T15:37:31.302Z,71.77
2023-03-02T15:39:58.345Z,72.54
2023-03-02T15:42:25.496Z,73.19
2023-03-02T15:44:52.509Z,73.56
2023-03-02T15:47:19.504Z,73.82
2023-03-02T15:49:46.370Z,74.03
2023-03-02T15:52:13.487Z,74.54
2023-03-02T15:54:40.743Z,74.75
2023-03-02T15:57:07.844Z,75.08
2023-03-02T15:59:34.920Z,75.38
2023-03-02T16:02:02.513Z,75.58
2023-03-02T16:04:31.151Z,75.52
2023-03-02T16:06:58.325Z,76.29
2023-03-02T16:09:26.903Z,75.85
2023-03-02T16:11:53.805Z,75.62
2023-03-02T16:14:20.657Z,75.77
2023-03-02T16:16:48.364Z,76.36
2023-03-02T16:19:19.095Z,76.52
2023-03-02T16:21:47.697Z,77.39
2023-03-02T16:24:16.367Z,76.71
2023-03-02T16:26:44.802Z,76.73
2023-03-02T16:29:13.364Z,76.92
2023-03-02T16:31:40.959Z,76.66
2023-03-02T16:34:09.774Z,76.92
2023-03-02T16:36:39.486Z,77.59
2023-03-02T16:39:08.575Z,77.50
2023-03-02T16:41:40.429Z,77.89
2023-03-02T16:44:07.882Z,78.19
2023-03-02T16:46:37.296Z,78.68
2023-03-02T16:49:05.000Z,78.74
2023-03-02T16:51:33.739Z,79.35
2023-03-02T16:54:00.896Z,79.77
2023-03-02T16:56:27.818Z,80.21
2023-03-02T16:58:55.657Z,80.73
2023-03-02T17:01:23.216Z,81.25
2023-03-02T17:03:51.278Z,81.05
2023-03-02T17:06:21.078Z,81.20
2023-03-02T17:08:48.648Z,81.18
2023-03-02T17:11:15.611Z,81.68
2023-03-02T17:13:42.644Z,82.03
2023-03-02T17:16:09.791Z,82.12
2023-03-02T17:18:36.756Z,82.16
2023-03-02T17:21:04.610Z,82.02
2023-03-02T17:23:31.727Z,82.47
2023-03-02T17:25:58.658Z,81.99
2023-03-02T17:28:26.104Z,81.95
2023-03-02T17:30:53.242Z,81.96
2023-03-02T17:33:20.436Z,81.87
2023-03-02T17:35:47.400Z,82.61
2023-03-02T17:38:15.769Z,82.49
2023-03-02T17:40:42.932Z,82.63
2023-03-02T17:43:11.542Z,83.00
2023-03-02T17:45:38.940Z,82.53
2023-03-02T17:48:06.585Z,82.50
2023-03-02T17:50:33.584Z,83.35
2023-03-02T17:53:00.949Z,83.40
2023-03-02T17:55:27.882Z,83.62
2023-03-02T17:57:55.361Z,83.87
2023-03-02T18:00:24.224Z,84.41
2023-03-02T18:02:52.278Z,84.66
2023-03-02T18:05:19.488Z,84.88
2023-03-02T18:07:46.356Z,85.01
2023-03-02T18:10:13.826Z,85.09
2023-03-02T18:12:40.998Z,85.27
2023-03-02T18:15:08.610Z,85.78
2023-03-02T18:17:35.497Z,85.54
2023-03-02T18:20:03.120Z,86.15
2023-03-02T18:22:30.822Z,86.33
2023-03-02T18:24:57.970Z,86.23
2023-03-02T18:27:24.923Z,85.57
2023-03-02T18:29:51.928Z,85.49
2023-03-02T18:32:18.971Z,85.68
2023-03-02T18:34:46.007Z,86.02
2023-03-02T18:37:12.952Z,85.58
2023-03-02T18:39:39.854Z,86.00
2023-03-02T18:42:07.600Z,86.29
2023-03-02T18:44:35.361Z,86.33
2023-03-02T18:47:02.712Z,86.73
2023-03-02T18:49:30.147Z,87.14
2023-03-02T18:51:57.330Z,86.81
2023-03-02T18:54:24.861Z,86.88
2023-03-02T18:56:51.775Z,86.69
2023-03-02T18:59:19.068Z,86.40
2023-03-02T19:01:47.116Z,86.45
2023-03-02T19:04:15.232Z,86.30
2023-03-02T19:06:43.653Z,86.33
2023-03-02T19:09:11.249Z,86.06
2023-03-02T19:11:38.163Z,85.83
2023-03-02T19:14:05.182Z,86.02
2023-03-02T19:16:32.792Z,85.69
2023-03-02T19:18:59.823Z,85.89
2023-03-02T19:21:26.716Z,86.13
2023-03-02T19:23:53.738Z,86.84
2023-03-02T19:26:20.685Z,86.94
2023-03-02T19:28:47.583Z,86.37
2023-03-02T19:31:15.123Z,86.79
2023-03-02T19:33:42.677Z,87.02
2023-03-02T19:36:10.175Z,86.76
2023-03-02T19:38:44.622Z,87.17
2023-03-02T19:41:17.060Z,87.21
2023-03-02T19:43:46.157Z,87.01
2023-03-02T19:46:14.810Z,87.04
2023-03-02T19:48:42.273Z,87.14
2023-03-02T19:51:09.473Z,87.23
2023-03-02T19:53:38.276Z,87.45
2023-03-02T19:56:08.177Z,87.06
2023-03-02T19:58:36.444Z,87.29
2023-03-02T20:01:04.272Z,86.91
2023-03-02T20:03:31.538Z,86.91
2023-03-02T20:05:59.608Z,87.27
2023-03-02T20:08:26.805Z,87.10
2023-03-02T20:10:54.053Z,86.91
2023-03-02T20:13:21.338Z,87.06
2023-03-02T20:15:48.380Z,87.23
2023-03-02T20:18:19.226Z,87.32
2023-03-02T20:20:47.159Z,87.22
2023-03-02T20:23:15.187Z,87.03
2023-03-02T20:25:42.295Z,86.81
2023-03-02T20:28:12.111Z,86.69
2023-03-02T20:30:46.665Z,86.33
2023-03-02T20:33:14.940Z,86.28
2023-03-02T20:35:44.492Z,86.27
2023-03-02T20:38:21.313Z,86.28
2023-03-02T20:40:48.465Z,86.13
2023-03-02T20:43:17.095Z,85.77
2023-03-02T20:45:44.170Z,85.58
2023-03-02T20:48:11.470Z,85.66
2023-03-02T20:50:38.598Z,85.62
2023-03-02T20:53:06.635Z,85.05
2023-03-02T20:55:34.342Z,84.96
2023-03-02T20:58:02.096Z,84.57
2023-03-02T21:00:30.432Z,84.21
2023-03-02T21:02:58.811Z,84.21
2023-03-02T21:05:26.963Z,83.82
2023-03-02T21:07:54.985Z,83.70
2023-03-02T21:10:29.592Z,83.97
2023-03-02T21:12:56.900Z,84.22
2023-03-02T21:15:27.200Z,83.45
2023-03-02T21:17:55.247Z,83.25
2023-03-02T21:20:24.436Z,83.09
2023-03-02T21:22:51.492Z,83.21
2023-03-02T21:25:18.454Z,83.15
2023-03-02T21:27:45.915Z,83.14
2023-03-02T21:30:17.910Z,83.09
2023-03-02T21:32:45.688Z,83.14
2023-03-02T21:35:15.324Z,83.69
2023-03-02T21:37:42.889Z,83.56
2023-03-02T21:40:14.149Z,83.25
2023-03-02T21:42:42.171Z,83.49
2023-03-02T21:45:09.703Z,83.65
2023-03-02T21:47:36.786Z,83.92
2023-03-02T21:50:05.412Z,83.60
2023-03-02T21:52:32.663Z,83.57
2023-03-02T21:54:59.497Z,83.32
2023-03-02T21:57:26.541Z,83.33
2023-03-02T21:59:54.806Z,83.54
2023-03-02T22:02:21.856Z,83.35
2023-03-02T22:04:48.795Z,83.45
2023-03-02T22:07:16.097Z,83.42
2023-03-02T22:09:42.973Z,83.52
2023-03-02T22:12:13.710Z,83.76
2023-03-02T22:14:41.008Z,83.26
2023-03-02T22:17:21.034Z,83.43
2023-03-02T22:19:49.788Z,83.59
2023-03-02T22:22:25.968Z,83.19
2023-03-02T22:24:54.435Z,83.08
2023-03-02T22:27:27.348Z,82.90
2023-03-02T22:29:57.852Z,83.21
2023-03-02T22:32:30.700Z,83.37
2023-03-02T22:35:00.260Z,83.74
2023-03-02T22:37:30.475Z,83.63
2023-03-02T22:40:02.012Z,83.40
2023-03-02T22:42:30.862Z,83.58
2023-03-02T22:45:12.993Z,83.44
2023-03-02T22:47:44.106Z,83.94
2023-03-02T22:50:28.924Z,83.41
2023-03-02T22:52:58.533Z,83.35
2023-03-02T22:55:39.414Z,83.33
2023-03-02T22:58:37.410Z,83.20
2023-03-02T23:01:23.448Z,83.58
2023-03-02T23:03:53.170Z,83.78
2023-03-02T23:06:29.436Z,83.75
2023-03-02T23:08:59.445Z,84.11
2023-03-02T23:11:27.315Z,84.14
2023-03-02T23:13:55.184Z,84.04
2023-03-02T23:16:26.390Z,84.23
2023-03-02T23:18:56.834Z,83.95
2023-03-02T23:21:47.412Z,83.90
2023-03-02T23:24:14.985Z,83.91
2023-03-02T23:26:41.801Z,83.99
2023-03-02T23:29:08.861Z,83.98
2023-03-02T23:31:35.782Z,84.16
2023-03-02T23:34:02.802Z,83.93
2023-03-02T23:36:30.922Z,83.39
2023-03-02T23:38:58.485Z,83.34
2023-03-02T23:41:26.816Z,83.71
2023-03-02T23:43:53.968Z,83.54
2023-03-02T23:46:20.906Z,83.97
2023-03-02T23:48:48.540Z,84.36
2023-03-02T23:51:16.015Z,84.22
2023-03-02T23:53:42.996Z,84.48
2023-03-02T23:56:10.104Z,84.41
2023-03-02T23:58:37.425Z,84.81
